International Virtual Aviation Organisation

Russian Federation and Kazakhstan MCD

 

Карточка аэропорта UHMA

Внимание!
Информация на этой странице в стадии наполнения.
Если вы не увидели какой-то информации, или заметили неточность - пожалуйста сообщите нам!
Спасибо!
Команда RU-STAFF
Название аэропортаУгольный
Название аэропорта (англ.)Ugolny
Превышение194 ft. (59.1 m.)
Координаты64°44.1', 177°44.28'
Высота перехода1600m
Эшелон переходаQFE>=755mm:FL070; QFE<755=>728:FL080; QFE<728:FL090
Коды ответчика6501-6537
Зона ОрВДМагадан РПИ (UHMM)
Данные METARUHMA 212030Z 31003MPS 280V350 CAVOK 02/M02 Q1020 R01/60D NOSIG RMK END R01/29003MPS QFE761/1015
Проноз погоды (TAF)UHMA 211957Z 2121/2221 31007G12MPS 9999 SCT025 TEMPO 2121/2212 30003G08MPS 3100 BR SCT007 SCT020 BECMG 2212/2213 33003G08MPS TEMPO 2213/2221 12005G10MPS SCT010 BKN022
NOTAMshow/hide NOTAM
AWOS   TABLE

Информация о ВПП


Диспетчерские позиции

Позывной Наименование органа УВД Частота
UHMA_APPАнадырь-Подход124.0
UHMA_TWRАнадырь-Старт124.0



Спутниковое изображение